sensor_id;sensor_type;location;lat;lon;timestamp;P1;durP1;ratioP1;P2;durP2;ratioP2
33987;SDS011;37428;53.580;-1.666;2023-04-29T00:02:04;16.27;;;14.50;;
33987;SDS011;37428;53.580;-1.666;2023-04-29T00:05:07;15.60;;;13.93;;
33987;SDS011;37428;53.580;-1.666;2023-04-29T00:08:09;16.27;;;14.70;;
33987;SDS011;37428;53.580;-1.666;2023-04-29T00:11:12;16.10;;;14.40;;
33987;SDS011;37428;53.580;-1.666;2023-04-29T00:14:14;17.85;;;15.95;;
33987;SDS011;37428;53.580;-1.666;2023-04-29T00:17:16;17.33;;;15.50;;
33987;SDS011;37428;53.580;-1.666;2023-04-29T00:20:20;20.55;;;17.63;;
33987;SDS011;37428;53.580;-1.666;2023-04-29T00:23:22;19.52;;;17.52;;
33987;SDS011;37428;53.580;-1.666;2023-04-29T00:26:24;18.08;;;16.27;;
33987;SDS011;37428;53.580;-1.666;2023-04-29T00:29:27;19.65;;;17.65;;
33987;SDS011;37428;53.580;-1.666;2023-04-29T00:32:29;21.13;;;18.40;;
33987;SDS011;37428;53.580;-1.666;2023-04-29T00:35:33;19.55;;;17.30;;
33987;SDS011;37428;53.580;-1.666;2023-04-29T00:38:35;21.25;;;18.00;;
33987;SDS011;37428;53.580;-1.666;2023-04-29T00:41:37;19.23;;;17.33;;
33987;SDS011;37428;53.580;-1.666;2023-04-29T00:44:39;20.38;;;18.35;;
33987;SDS011;37428;53.580;-1.666;2023-04-29T00:47:41;19.75;;;17.52;;
33987;SDS011;37428;53.580;-1.666;2023-04-29T00:50:45;20.40;;;18.05;;
33987;SDS011;37428;53.580;-1.666;2023-04-29T00:53:54;22.33;;;19.27;;
33987;SDS011;37428;53.580;-1.666;2023-04-29T00:56:56;21.70;;;19.23;;
33987;SDS011;37428;53.580;-1.666;2023-04-29T01:00:00;21.58;;;19.33;;
33987;SDS011;37428;53.580;-1.666;2023-04-29T01:06:08;27.92;;;22.27;;
33987;SDS011;37428;53.580;-1.666;2023-04-29T01:09:24;27.77;;;23.08;;
33987;SDS011;37428;53.580;-1.666;2023-04-29T01:12:37;25.35;;;22.52;;
33987;SDS011;37428;53.580;-1.666;2023-04-29T01:15:46;30.10;;;24.88;;
33987;SDS011;37428;53.580;-1.666;2023-04-29T01:18:56;37.60;;;28.88;;
33987;SDS011;37428;53.580;-1.666;2023-04-29T01:22:02;38.33;;;28.77;;
33987;SDS011;37428;53.580;-1.666;2023-04-29T01:25:06;38.88;;;28.88;;
33987;SDS011;37428;53.580;-1.666;2023-04-29T01:28:12;39.03;;;29.10;;
33987;SDS011;37428;53.580;-1.666;2023-04-29T01:31:23;39.25;;;28.70;;
33987;SDS011;37428;53.580;-1.666;2023-04-29T01:34:29;35.50;;;27.45;;
33987;SDS011;37428;53.580;-1.666;2023-04-29T01:37:37;35.92;;;28.50;;
33987;SDS011;37428;53.580;-1.666;2023-04-29T01:40:52;35.88;;;27.85;;
33987;SDS011;37428;53.580;-1.666;2023-04-29T01:44:04;39.53;;;29.50;;
33987;SDS011;37428;53.580;-1.666;2023-04-29T01:47:12;33.42;;;26.58;;
33987;SDS011;37428;53.580;-1.666;2023-04-29T01:50:15;36.00;;;29.17;;
33987;SDS011;37428;53.580;-1.666;2023-04-29T01:53:17;33.10;;;28.35;;
33987;SDS011;37428;53.580;-1.666;2023-04-29T01:56:20;39.95;;;31.50;;
33987;SDS011;37428;53.580;-1.666;2023-04-29T01:59:22;39.45;;;29.63;;
33987;SDS011;37428;53.580;-1.666;2023-04-29T02:02:25;35.17;;;28.25;;
33987;SDS011;37428;53.580;-1.666;2023-04-29T02:05:27;39.55;;;31.25;;
33987;SDS011;37428;53.580;-1.666;2023-04-29T02:08:31;41.58;;;31.15;;
33987;SDS011;37428;53.580;-1.666;2023-04-29T02:11:35;43.92;;;30.63;;
33987;SDS011;37428;53.580;-1.666;2023-04-29T02:14:37;40.60;;;29.38;;
33987;SDS011;37428;53.580;-1.666;2023-04-29T02:17:39;38.92;;;30.90;;
33987;SDS011;37428;53.580;-1.666;2023-04-29T02:20:41;35.83;;;29.80;;
33987;SDS011;37428;53.580;-1.666;2023-04-29T02:23:43;42.95;;;30.17;;
33987;SDS011;37428;53.580;-1.666;2023-04-29T02:26:47;38.00;;;28.50;;
33987;SDS011;37428;53.580;-1.666;2023-04-29T02:29:49;42.50;;;30.30;;
33987;SDS011;37428;53.580;-1.666;2023-04-29T02:35:53;36.08;;;26.95;;
33987;SDS011;37428;53.580;-1.666;2023-04-29T02:38:55;32.20;;;26.15;;
33987;SDS011;37428;53.580;-1.666;2023-04-29T02:42:00;36.33;;;28.33;;
33987;SDS011;37428;53.580;-1.666;2023-04-29T02:45:03;37.17;;;27.55;;
33987;SDS011;37428;53.580;-1.666;2023-04-29T02:48:05;31.42;;;26.38;;
33987;SDS011;37428;53.580;-1.666;2023-04-29T02:51:08;33.80;;;27.60;;
33987;SDS011;37428;53.580;-1.666;2023-04-29T02:54:10;33.65;;;28.23;;
33987;SDS011;37428;53.580;-1.666;2023-04-29T02:57:13;35.22;;;27.17;;
33987;SDS011;37428;53.580;-1.666;2023-04-29T03:00:15;36.03;;;28.08;;
33987;SDS011;37428;53.580;-1.666;2023-04-29T03:03:17;39.78;;;30.45;;
33987;SDS011;37428;53.580;-1.666;2023-04-29T03:06:19;39.72;;;31.58;;
33987;SDS011;37428;53.580;-1.666;2023-04-29T03:09:21;49.40;;;34.95;;
33987;SDS011;37428;53.580;-1.666;2023-04-29T03:12:25;41.63;;;33.20;;
33987;SDS011;37428;53.580;-1.666;2023-04-29T03:15:27;45.30;;;33.97;;
33987;SDS011;37428;53.580;-1.666;2023-04-29T03:18:29;45.97;;;35.13;;
33987;SDS011;37428;53.580;-1.666;2023-04-29T03:21:32;48.35;;;36.95;;
33987;SDS011;37428;53.580;-1.666;2023-04-29T03:24:34;50.28;;;36.08;;
33987;SDS011;37428;53.580;-1.666;2023-04-29T03:27:37;51.15;;;36.00;;
33987;SDS011;37428;53.580;-1.666;2023-04-29T03:30:39;48.78;;;35.17;;
33987;SDS011;37428;53.580;-1.666;2023-04-29T03:33:42;46.92;;;35.38;;
33987;SDS011;37428;53.580;-1.666;2023-04-29T03:36:44;47.85;;;34.90;;
33987;SDS011;37428;53.580;-1.666;2023-04-29T03:39:46;53.17;;;37.55;;
33987;SDS011;37428;53.580;-1.666;2023-04-29T03:42:49;55.25;;;36.05;;
33987;SDS011;37428;53.580;-1.666;2023-04-29T03:45:52;47.50;;;33.58;;
33987;SDS011;37428;53.580;-1.666;2023-04-29T03:48:54;49.25;;;35.15;;
33987;SDS011;37428;53.580;-1.666;2023-04-29T03:54:58;43.15;;;30.08;;
33987;SDS011;37428;53.580;-1.666;2023-04-29T03:58:02;32.15;;;25.58;;
33987;SDS011;37428;53.580;-1.666;2023-04-29T04:01:04;35.30;;;24.73;;
33987;SDS011;37428;53.580;-1.666;2023-04-29T04:04:06;30.63;;;22.88;;
33987;SDS011;37428;53.580;-1.666;2023-04-29T04:07:08;29.75;;;23.73;;
33987;SDS011;37428;53.580;-1.666;2023-04-29T04:10:10;29.60;;;24.85;;
33987;SDS011;37428;53.580;-1.666;2023-04-29T04:13:14;33.55;;;25.33;;
33987;SDS011;37428;53.580;-1.666;2023-04-29T04:16:16;33.33;;;25.58;;
33987;SDS011;37428;53.580;-1.666;2023-04-29T04:19:18;30.63;;;24.92;;
33987;SDS011;37428;53.580;-1.666;2023-04-29T04:22:20;28.73;;;23.38;;
33987;SDS011;37428;53.580;-1.666;2023-04-29T04:25:22;30.40;;;23.85;;
33987;SDS011;37428;53.580;-1.666;2023-04-29T04:28:26;29.80;;;23.73;;
33987;SDS011;37428;53.580;-1.666;2023-04-29T04:31:28;29.40;;;24.02;;
33987;SDS011;37428;53.580;-1.666;2023-04-29T04:34:30;31.02;;;23.50;;
33987;SDS011;37428;53.580;-1.666;2023-04-29T04:37:32;29.35;;;22.83;;
33987;SDS011;37428;53.580;-1.666;2023-04-29T04:40:34;27.25;;;21.27;;
33987;SDS011;37428;53.580;-1.666;2023-04-29T04:43:37;32.03;;;21.90;;
33987;SDS011;37428;53.580;-1.666;2023-04-29T04:46:40;27.95;;;22.55;;
33987;SDS011;37428;53.580;-1.666;2023-04-29T04:49:42;31.27;;;23.50;;
33987;SDS011;37428;53.580;-1.666;2023-04-29T04:52:45;29.08;;;22.92;;
33987;SDS011;37428;53.580;-1.666;2023-04-29T04:55:47;28.42;;;22.58;;
33987;SDS011;37428;53.580;-1.666;2023-04-29T04:58:50;27.73;;;22.10;;
33987;SDS011;37428;53.580;-1.666;2023-04-29T05:01:53;35.03;;;25.40;;
33987;SDS011;37428;53.580;-1.666;2023-04-29T05:04:55;29.15;;;22.48;;
33987;SDS011;37428;53.580;-1.666;2023-04-29T05:07:57;32.53;;;23.90;;
33987;SDS011;37428;53.580;-1.666;2023-04-29T05:10:59;29.98;;;22.33;;
33987;SDS011;37428;53.580;-1.666;2023-04-29T05:14:02;31.35;;;23.10;;
33987;SDS011;37428;53.580;-1.666;2023-04-29T05:17:06;27.92;;;22.17;;
33987;SDS011;37428;53.580;-1.666;2023-04-29T05:20:10;26.98;;;21.67;;
33987;SDS011;37428;53.580;-1.666;2023-04-29T05:23:12;23.65;;;19.65;;
33987;SDS011;37428;53.580;-1.666;2023-04-29T05:26:14;28.98;;;20.55;;
33987;SDS011;37428;53.580;-1.666;2023-04-29T05:29:18;29.73;;;24.25;;
33987;SDS011;37428;53.580;-1.666;2023-04-29T05:32:20;38.83;;;27.15;;
33987;SDS011;37428;53.580;-1.666;2023-04-29T05:35:22;31.70;;;24.70;;
33987;SDS011;37428;53.580;-1.666;2023-04-29T05:38:24;30.48;;;23.52;;
33987;SDS011;37428;53.580;-1.666;2023-04-29T05:41:28;30.27;;;22.90;;
33987;SDS011;37428;53.580;-1.666;2023-04-29T05:44:31;22.90;;;20.38;;
33987;SDS011;37428;53.580;-1.666;2023-04-29T05:47:33;21.00;;;17.38;;
33987;SDS011;37428;53.580;-1.666;2023-04-29T05:50:35;17.80;;;15.45;;
33987;SDS011;37428;53.580;-1.666;2023-04-29T05:53:37;14.32;;;12.23;;
33987;SDS011;37428;53.580;-1.666;2023-04-29T05:56:40;15.65;;;13.93;;
33987;SDS011;37428;53.580;-1.666;2023-04-29T05:59:43;20.05;;;17.65;;
33987;SDS011;37428;53.580;-1.666;2023-04-29T06:02:46;19.60;;;16.77;;
33987;SDS011;37428;53.580;-1.666;2023-04-29T06:05:48;16.95;;;14.27;;
33987;SDS011;37428;53.580;-1.666;2023-04-29T06:08:50;16.85;;;13.43;;
33987;SDS011;37428;53.580;-1.666;2023-04-29T06:11:52;14.90;;;13.27;;
33987;SDS011;37428;53.580;-1.666;2023-04-29T06:14:56;11.85;;;10.75;;
33987;SDS011;37428;53.580;-1.666;2023-04-29T06:17:58;10.40;;;9.45;;
33987;SDS011;37428;53.580;-1.666;2023-04-29T06:21:00;10.55;;;9.55;;
33987;SDS011;37428;53.580;-1.666;2023-04-29T06:24:02;9.75;;;8.77;;
33987;SDS011;37428;53.580;-1.666;2023-04-29T06:27:05;8.82;;;7.90;;
33987;SDS011;37428;53.580;-1.666;2023-04-29T06:30:09;10.02;;;9.02;;
33987;SDS011;37428;53.580;-1.666;2023-04-29T06:33:11;14.38;;;12.32;;
33987;SDS011;37428;53.580;-1.666;2023-04-29T06:36:14;11.10;;;9.45;;
33987;SDS011;37428;53.580;-1.666;2023-04-29T06:39:16;11.55;;;10.48;;
33987;SDS011;37428;53.580;-1.666;2023-04-29T06:42:18;13.68;;;11.82;;
33987;SDS011;37428;53.580;-1.666;2023-04-29T06:45:21;13.23;;;11.93;;
33987;SDS011;37428;53.580;-1.666;2023-04-29T06:48:24;11.82;;;10.70;;
33987;SDS011;37428;53.580;-1.666;2023-04-29T06:51:26;10.20;;;9.30;;
33987;SDS011;37428;53.580;-1.666;2023-04-29T06:54:28;14.63;;;11.30;;
33987;SDS011;37428;53.580;-1.666;2023-04-29T06:57:30;16.40;;;14.80;;
33987;SDS011;37428;53.580;-1.666;2023-04-29T07:00:34;16.92;;;14.85;;
33987;SDS011;37428;53.580;-1.666;2023-04-29T07:03:36;13.30;;;11.68;;
33987;SDS011;37428;53.580;-1.666;2023-04-29T07:06:38;10.95;;;9.95;;
33987;SDS011;37428;53.580;-1.666;2023-04-29T07:09:41;11.52;;;10.23;;
33987;SDS011;37428;53.580;-1.666;2023-04-29T07:12:43;12.02;;;10.75;;
33987;SDS011;37428;53.580;-1.666;2023-04-29T07:15:46;10.15;;;9.15;;
33987;SDS011;37428;53.580;-1.666;2023-04-29T07:18:48;9.48;;;8.02;;
33987;SDS011;37428;53.580;-1.666;2023-04-29T07:21:52;8.38;;;7.45;;
33987;SDS011;37428;53.580;-1.666;2023-04-29T07:24:54;8.48;;;7.78;;
33987;SDS011;37428;53.580;-1.666;2023-04-29T07:27:57;9.02;;;8.13;;
33987;SDS011;37428;53.580;-1.666;2023-04-29T07:31:00;9.75;;;8.52;;
33987;SDS011;37428;53.580;-1.666;2023-04-29T07:34:02;8.52;;;7.72;;
33987;SDS011;37428;53.580;-1.666;2023-04-29T07:37:05;10.05;;;8.50;;
33987;SDS011;37428;53.580;-1.666;2023-04-29T07:43:11;11.65;;;9.75;;
33987;SDS011;37428;53.580;-1.666;2023-04-29T07:46:14;11.00;;;9.90;;
33987;SDS011;37428;53.580;-1.666;2023-04-29T07:49:17;10.30;;;9.27;;
33987;SDS011;37428;53.580;-1.666;2023-04-29T07:52:19;10.75;;;9.60;;
33987;SDS011;37428;53.580;-1.666;2023-04-29T07:55:21;15.50;;;13.88;;
33987;SDS011;37428;53.580;-1.666;2023-04-29T07:58:23;22.95;;;14.75;;
33987;SDS011;37428;53.580;-1.666;2023-04-29T08:01:27;14.63;;;13.13;;
33987;SDS011;37428;53.580;-1.666;2023-04-29T08:04:29;18.38;;;16.45;;
33987;SDS011;37428;53.580;-1.666;2023-04-29T08:07:31;17.60;;;13.82;;
33987;SDS011;37428;53.580;-1.666;2023-04-29T08:10:36;14.95;;;13.32;;
33987;SDS011;37428;53.580;-1.666;2023-04-29T08:13:40;16.23;;;14.55;;
33987;SDS011;37428;53.580;-1.666;2023-04-29T08:16:43;16.90;;;15.13;;
33987;SDS011;37428;53.580;-1.666;2023-04-29T08:19:45;16.05;;;14.45;;
33987;SDS011;37428;53.580;-1.666;2023-04-29T08:22:47;19.15;;;17.10;;
33987;SDS011;37428;53.580;-1.666;2023-04-29T08:25:49;20.80;;;18.60;;
33987;SDS011;37428;53.580;-1.666;2023-04-29T08:28:52;18.95;;;16.95;;
33987;SDS011;37428;53.580;-1.666;2023-04-29T08:31:56;20.35;;;18.10;;
33987;SDS011;37428;53.580;-1.666;2023-04-29T08:34:58;18.98;;;17.08;;
33987;SDS011;37428;53.580;-1.666;2023-04-29T08:38:00;20.73;;;18.63;;
33987;SDS011;37428;53.580;-1.666;2023-04-29T08:41:06;20.48;;;18.42;;
33987;SDS011;37428;53.580;-1.666;2023-04-29T08:44:08;21.02;;;18.25;;
33987;SDS011;37428;53.580;-1.666;2023-04-29T08:47:12;19.00;;;17.15;;
33987;SDS011;37428;53.580;-1.666;2023-04-29T08:50:15;19.65;;;17.45;;
33987;SDS011;37428;53.580;-1.666;2023-04-29T08:53:17;20.38;;;18.15;;
33987;SDS011;37428;53.580;-1.666;2023-04-29T08:56:19;19.38;;;17.38;;
33987;SDS011;37428;53.580;-1.666;2023-04-29T09:02:25;21.30;;;18.57;;
33987;SDS011;37428;53.580;-1.666;2023-04-29T09:05:28;20.40;;;18.35;;
33987;SDS011;37428;53.580;-1.666;2023-04-29T09:08:31;22.40;;;20.00;;
33987;SDS011;37428;53.580;-1.666;2023-04-29T09:11:33;19.48;;;17.67;;
33987;SDS011;37428;53.580;-1.666;2023-04-29T09:14:37;19.67;;;17.73;;
33987;SDS011;37428;53.580;-1.666;2023-04-29T09:17:42;19.20;;;17.23;;
33987;SDS011;37428;53.580;-1.666;2023-04-29T09:20:45;18.92;;;17.13;;
33987;SDS011;37428;53.580;-1.666;2023-04-29T09:23:47;19.00;;;17.02;;
33987;SDS011;37428;53.580;-1.666;2023-04-29T09:26:51;18.60;;;16.80;;
33987;SDS011;37428;53.580;-1.666;2023-04-29T09:29:59;19.63;;;15.98;;
33987;SDS011;37428;53.580;-1.666;2023-04-29T09:33:06;17.02;;;15.43;;
33987;SDS011;37428;53.580;-1.666;2023-04-29T09:36:09;16.38;;;14.77;;
33987;SDS011;37428;53.580;-1.666;2023-04-29T09:39:11;18.30;;;16.50;;
33987;SDS011;37428;53.580;-1.666;2023-04-29T09:42:15;15.40;;;13.75;;
33987;SDS011;37428;53.580;-1.666;2023-04-29T09:45:30;14.75;;;13.30;;
33987;SDS011;37428;53.580;-1.666;2023-04-29T09:48:37;14.75;;;13.20;;
33987;SDS011;37428;53.580;-1.666;2023-04-29T09:51:43;15.45;;;14.05;;
33987;SDS011;37428;53.580;-1.666;2023-04-29T09:54:53;14.85;;;13.55;;
33987;SDS011;37428;53.580;-1.666;2023-04-29T09:58:05;16.02;;;14.60;;
33987;SDS011;37428;53.580;-1.666;2023-04-29T10:01:08;14.50;;;13.25;;
33987;SDS011;37428;53.580;-1.666;2023-04-29T10:04:14;14.48;;;13.18;;
33987;SDS011;37428;53.580;-1.666;2023-04-29T10:07:17;13.23;;;12.02;;
33987;SDS011;37428;53.580;-1.666;2023-04-29T10:10:20;15.63;;;14.32;;
33987;SDS011;37428;53.580;-1.666;2023-04-29T10:13:24;15.43;;;13.88;;
33987;SDS011;37428;53.580;-1.666;2023-04-29T10:16:28;15.88;;;14.35;;
33987;SDS011;37428;53.580;-1.666;2023-04-29T10:19:34;14.65;;;13.35;;
33987;SDS011;37428;53.580;-1.666;2023-04-29T10:22:42;13.05;;;11.95;;
33987;SDS011;37428;53.580;-1.666;2023-04-29T10:25:47;14.77;;;13.38;;
33987;SDS011;37428;53.580;-1.666;2023-04-29T10:28:53;16.95;;;15.25;;
33987;SDS011;37428;53.580;-1.666;2023-04-29T10:31:56;14.35;;;13.07;;
33987;SDS011;37428;53.580;-1.666;2023-04-29T10:35:01;14.70;;;13.18;;
33987;SDS011;37428;53.580;-1.666;2023-04-29T10:41:25;13.25;;;12.02;;
33987;SDS011;37428;53.580;-1.666;2023-04-29T10:44:30;15.80;;;11.75;;
33987;SDS011;37428;53.580;-1.666;2023-04-29T10:47:32;11.05;;;10.05;;
33987;SDS011;37428;53.580;-1.666;2023-04-29T10:50:39;10.55;;;9.65;;
33987;SDS011;37428;53.580;-1.666;2023-04-29T10:54:01;10.32;;;9.38;;
33987;SDS011;37428;53.580;-1.666;2023-04-29T10:57:04;11.40;;;10.30;;
33987;SDS011;37428;53.580;-1.666;2023-04-29T11:00:07;11.40;;;10.38;;
33987;SDS011;37428;53.580;-1.666;2023-04-29T11:06:50;12.40;;;11.02;;
33987;SDS011;37428;53.580;-1.666;2023-04-29T11:09:53;10.77;;;9.57;;
33987;SDS011;37428;53.580;-1.666;2023-04-29T11:16:24;12.95;;;11.68;;
33987;SDS011;37428;53.580;-1.666;2023-04-29T11:19:32;14.55;;;12.90;;
33987;SDS011;37428;53.580;-1.666;2023-04-29T11:22:36;13.68;;;12.38;;
33987;SDS011;37428;53.580;-1.666;2023-04-29T11:25:42;12.52;;;11.32;;
33987;SDS011;37428;53.580;-1.666;2023-04-29T11:28:44;18.88;;;13.07;;
33987;SDS011;37428;53.580;-1.666;2023-04-29T11:31:47;13.68;;;12.23;;
33987;SDS011;37428;53.580;-1.666;2023-04-29T11:35:07;13.88;;;12.75;;
33987;SDS011;37428;53.580;-1.666;2023-04-29T11:38:12;13.70;;;12.30;;
33987;SDS011;37428;53.580;-1.666;2023-04-29T11:41:14;12.95;;;11.75;;
33987;SDS011;37428;53.580;-1.666;2023-04-29T11:44:20;19.52;;;17.67;;
33987;SDS011;37428;53.580;-1.666;2023-04-29T11:47:24;19.63;;;17.73;;
33987;SDS011;37428;53.580;-1.666;2023-04-29T11:50:28;19.58;;;17.73;;
33987;SDS011;37428;53.580;-1.666;2023-04-29T11:53:33;22.45;;;20.20;;
33987;SDS011;37428;53.580;-1.666;2023-04-29T11:56:36;17.20;;;15.48;;
33987;SDS011;37428;53.580;-1.666;2023-04-29T11:59:38;19.63;;;17.63;;
33987;SDS011;37428;53.580;-1.666;2023-04-29T12:02:43;21.20;;;18.85;;
33987;SDS011;37428;53.580;-1.666;2023-04-29T12:05:46;19.50;;;17.60;;
33987;SDS011;37428;53.580;-1.666;2023-04-29T12:08:50;19.60;;;17.80;;
33987;SDS011;37428;53.580;-1.666;2023-04-29T12:11:52;18.95;;;17.05;;
33987;SDS011;37428;53.580;-1.666;2023-04-29T12:14:54;18.52;;;16.70;;
33987;SDS011;37428;53.580;-1.666;2023-04-29T12:17:56;19.55;;;17.75;;
33987;SDS011;37428;53.580;-1.666;2023-04-29T12:20:58;21.50;;;19.48;;
33987;SDS011;37428;53.580;-1.666;2023-04-29T12:24:02;22.42;;;18.98;;
33987;SDS011;37428;53.580;-1.666;2023-04-29T12:27:06;22.75;;;20.40;;
33987;SDS011;37428;53.580;-1.666;2023-04-29T12:30:10;26.67;;;23.83;;
33987;SDS011;37428;53.580;-1.666;2023-04-29T12:36:21;27.58;;;24.77;;
33987;SDS011;37428;53.580;-1.666;2023-04-29T12:39:26;27.75;;;24.95;;
33987;SDS011;37428;53.580;-1.666;2023-04-29T12:42:31;29.17;;;25.67;;
33987;SDS011;37428;53.580;-1.666;2023-04-29T12:45:34;25.38;;;22.73;;
33987;SDS011;37428;53.580;-1.666;2023-04-29T12:48:36;27.48;;;24.88;;
33987;SDS011;37428;53.580;-1.666;2023-04-29T12:51:40;28.27;;;25.38;;
33987;SDS011;37428;53.580;-1.666;2023-04-29T12:54:43;28.25;;;25.20;;
33987;SDS011;37428;53.580;-1.666;2023-04-29T12:57:45;28.42;;;25.55;;
33987;SDS011;37428;53.580;-1.666;2023-04-29T13:00:47;26.98;;;24.20;;
33987;SDS011;37428;53.580;-1.666;2023-04-29T13:03:50;27.80;;;24.35;;
33987;SDS011;37428;53.580;-1.666;2023-04-29T13:06:52;29.98;;;25.95;;
33987;SDS011;37428;53.580;-1.666;2023-04-29T13:10:00;26.58;;;23.83;;
33987;SDS011;37428;53.580;-1.666;2023-04-29T13:13:05;30.70;;;27.67;;
33987;SDS011;37428;53.580;-1.666;2023-04-29T13:16:09;31.13;;;27.80;;
33987;SDS011;37428;53.580;-1.666;2023-04-29T13:19:11;30.27;;;27.25;;
33987;SDS011;37428;53.580;-1.666;2023-04-29T13:22:13;29.77;;;26.65;;
33987;SDS011;37428;53.580;-1.666;2023-04-29T13:25:17;29.60;;;26.55;;
33987;SDS011;37428;53.580;-1.666;2023-04-29T13:28:19;30.90;;;27.80;;
33987;SDS011;37428;53.580;-1.666;2023-04-29T13:31:21;29.75;;;26.83;;
33987;SDS011;37428;53.580;-1.666;2023-04-29T13:34:23;31.92;;;28.55;;
33987;SDS011;37428;53.580;-1.666;2023-04-29T13:37:25;33.70;;;30.13;;
33987;SDS011;37428;53.580;-1.666;2023-04-29T13:40:29;32.88;;;29.67;;
33987;SDS011;37428;53.580;-1.666;2023-04-29T13:43:31;31.80;;;28.45;;
33987;SDS011;37428;53.580;-1.666;2023-04-29T13:46:33;32.50;;;29.30;;
33987;SDS011;37428;53.580;-1.666;2023-04-29T13:49:35;28.90;;;26.05;;
33987;SDS011;37428;53.580;-1.666;2023-04-29T13:52:37;28.92;;;25.90;;
33987;SDS011;37428;53.580;-1.666;2023-04-29T13:55:41;29.30;;;26.35;;
33987;SDS011;37428;53.580;-1.666;2023-04-29T13:58:43;34.15;;;30.50;;
33987;SDS011;37428;53.580;-1.666;2023-04-29T14:01:45;32.78;;;29.35;;
33987;SDS011;37428;53.580;-1.666;2023-04-29T14:04:47;36.17;;;29.75;;
33987;SDS011;37428;53.580;-1.666;2023-04-29T14:07:50;34.20;;;30.55;;
33987;SDS011;37428;53.580;-1.666;2023-04-29T14:10:54;37.88;;;31.55;;
33987;SDS011;37428;53.580;-1.666;2023-04-29T14:13:56;45.65;;;36.55;;
33987;SDS011;37428;53.580;-1.666;2023-04-29T14:16:58;40.30;;;33.38;;
33987;SDS011;37428;53.580;-1.666;2023-04-29T14:23:03;40.95;;;32.90;;
33987;SDS011;37428;53.580;-1.666;2023-04-29T14:26:06;38.20;;;33.95;;
33987;SDS011;37428;53.580;-1.666;2023-04-29T14:29:08;38.05;;;33.50;;
33987;SDS011;37428;53.580;-1.666;2023-04-29T14:32:11;40.08;;;32.35;;
33987;SDS011;37428;53.580;-1.666;2023-04-29T14:35:13;37.10;;;31.95;;
33987;SDS011;37428;53.580;-1.666;2023-04-29T14:38:15;39.30;;;31.85;;
33987;SDS011;37428;53.580;-1.666;2023-04-29T14:41:18;34.28;;;30.65;;
33987;SDS011;37428;53.580;-1.666;2023-04-29T14:44:21;36.33;;;32.38;;
33987;SDS011;37428;53.580;-1.666;2023-04-29T14:47:23;37.15;;;30.73;;
33987;SDS011;37428;53.580;-1.666;2023-04-29T14:50:26;36.05;;;32.05;;
33987;SDS011;37428;53.580;-1.666;2023-04-29T14:53:28;34.67;;;29.75;;
33987;SDS011;37428;53.580;-1.666;2023-04-29T14:56:31;36.42;;;29.33;;
33987;SDS011;37428;53.580;-1.666;2023-04-29T14:59:35;38.92;;;31.38;;
33987;SDS011;37428;53.580;-1.666;2023-04-29T15:02:37;36.42;;;30.52;;
33987;SDS011;37428;53.580;-1.666;2023-04-29T15:05:39;35.30;;;30.40;;
33987;SDS011;37428;53.580;-1.666;2023-04-29T15:08:42;37.45;;;33.05;;
33987;SDS011;37428;53.580;-1.666;2023-04-29T15:11:45;34.35;;;30.30;;
33987;SDS011;37428;53.580;-1.666;2023-04-29T15:14:47;35.17;;;30.52;;
33987;SDS011;37428;53.580;-1.666;2023-04-29T15:17:49;35.53;;;30.75;;
33987;SDS011;37428;53.580;-1.666;2023-04-29T15:20:51;35.78;;;30.20;;
33987;SDS011;37428;53.580;-1.666;2023-04-29T15:23:53;37.30;;;31.17;;
33987;SDS011;37428;53.580;-1.666;2023-04-29T15:26:58;35.28;;;31.40;;
33987;SDS011;37428;53.580;-1.666;2023-04-29T15:30:00;33.95;;;30.30;;
33987;SDS011;37428;53.580;-1.666;2023-04-29T15:33:02;36.63;;;31.17;;
33987;SDS011;37428;53.580;-1.666;2023-04-29T15:39:06;33.90;;;28.02;;
33987;SDS011;37428;53.580;-1.666;2023-04-29T15:42:11;34.50;;;30.55;;
33987;SDS011;37428;53.580;-1.666;2023-04-29T15:45:13;33.03;;;29.40;;
33987;SDS011;37428;53.580;-1.666;2023-04-29T15:48:16;31.63;;;27.55;;
33987;SDS011;37428;53.580;-1.666;2023-04-29T15:51:17;35.05;;;29.10;;
33987;SDS011;37428;53.580;-1.666;2023-04-29T15:54:20;34.72;;;27.30;;
33987;SDS011;37428;53.580;-1.666;2023-04-29T15:57:23;31.80;;;27.02;;
33987;SDS011;37428;53.580;-1.666;2023-04-29T16:00:25;31.17;;;27.75;;
33987;SDS011;37428;53.580;-1.666;2023-04-29T16:03:29;31.05;;;27.73;;
33987;SDS011;37428;53.580;-1.666;2023-04-29T16:06:32;34.83;;;28.35;;
33987;SDS011;37428;53.580;-1.666;2023-04-29T16:09:34;32.30;;;28.73;;
33987;SDS011;37428;53.580;-1.666;2023-04-29T16:12:37;29.92;;;26.77;;
33987;SDS011;37428;53.580;-1.666;2023-04-29T16:15:39;30.70;;;27.42;;
33987;SDS011;37428;53.580;-1.666;2023-04-29T16:18:41;35.90;;;29.20;;
33987;SDS011;37428;53.580;-1.666;2023-04-29T16:21:43;32.72;;;27.17;;
33987;SDS011;37428;53.580;-1.666;2023-04-29T16:24:45;30.30;;;26.88;;
33987;SDS011;37428;53.580;-1.666;2023-04-29T16:27:49;34.67;;;29.10;;
33987;SDS011;37428;53.580;-1.666;2023-04-29T16:30:51;32.97;;;28.10;;
33987;SDS011;37428;53.580;-1.666;2023-04-29T16:33:53;34.53;;;28.40;;
33987;SDS011;37428;53.580;-1.666;2023-04-29T16:39:58;36.78;;;29.48;;
33987;SDS011;37428;53.580;-1.666;2023-04-29T16:43:01;36.90;;;30.02;;
33987;SDS011;37428;53.580;-1.666;2023-04-29T16:46:03;36.65;;;27.58;;
33987;SDS011;37428;53.580;-1.666;2023-04-29T16:49:05;37.80;;;27.75;;
33987;SDS011;37428;53.580;-1.666;2023-04-29T16:52:08;32.88;;;26.15;;
33987;SDS011;37428;53.580;-1.666;2023-04-29T16:55:11;35.22;;;27.80;;
33987;SDS011;37428;53.580;-1.666;2023-04-29T16:58:15;36.25;;;27.23;;
33987;SDS011;37428;53.580;-1.666;2023-04-29T17:01:17;30.75;;;26.35;;
33987;SDS011;37428;53.580;-1.666;2023-04-29T17:04:19;35.55;;;27.70;;
33987;SDS011;37428;53.580;-1.666;2023-04-29T17:10:23;31.58;;;26.83;;
33987;SDS011;37428;53.580;-1.666;2023-04-29T17:13:27;36.17;;;27.90;;
33987;SDS011;37428;53.580;-1.666;2023-04-29T17:16:29;32.70;;;27.35;;
33987;SDS011;37428;53.580;-1.666;2023-04-29T17:19:32;36.22;;;27.88;;
33987;SDS011;37428;53.580;-1.666;2023-04-29T17:22:34;30.10;;;25.60;;
33987;SDS011;37428;53.580;-1.666;2023-04-29T17:25:36;33.63;;;28.15;;
33987;SDS011;37428;53.580;-1.666;2023-04-29T17:28:39;31.17;;;26.17;;
33987;SDS011;37428;53.580;-1.666;2023-04-29T17:31:42;34.72;;;27.67;;
33987;SDS011;37428;53.580;-1.666;2023-04-29T17:34:53;30.02;;;25.77;;
33987;SDS011;37428;53.580;-1.666;2023-04-29T17:40:57;36.03;;;26.48;;
33987;SDS011;37428;53.580;-1.666;2023-04-29T17:44:01;37.55;;;26.13;;
33987;SDS011;37428;53.580;-1.666;2023-04-29T17:47:03;33.85;;;26.77;;
33987;SDS011;37428;53.580;-1.666;2023-04-29T17:50:08;29.98;;;24.55;;
33987;SDS011;37428;53.580;-1.666;2023-04-29T17:53:10;34.28;;;26.98;;
33987;SDS011;37428;53.580;-1.666;2023-04-29T17:56:13;36.95;;;25.73;;
33987;SDS011;37428;53.580;-1.666;2023-04-29T17:59:16;38.45;;;26.50;;
33987;SDS011;37428;53.580;-1.666;2023-04-29T18:02:18;36.00;;;27.02;;
33987;SDS011;37428;53.580;-1.666;2023-04-29T18:05:20;38.05;;;30.33;;
33987;SDS011;37428;53.580;-1.666;2023-04-29T18:08:23;37.60;;;30.20;;
33987;SDS011;37428;53.580;-1.666;2023-04-29T18:14:28;36.38;;;27.52;;
33987;SDS011;37428;53.580;-1.666;2023-04-29T18:17:31;37.55;;;29.17;;
33987;SDS011;37428;53.580;-1.666;2023-04-29T18:20:33;41.17;;;30.13;;
33987;SDS011;37428;53.580;-1.666;2023-04-29T18:23:35;41.38;;;30.52;;
33987;SDS011;37428;53.580;-1.666;2023-04-29T18:26:38;41.00;;;29.83;;